Time;durP1;ratioP1;P1;durP2;ratioP2;P2;SDS_P1;SDS_P2;PMS_P1;PMS_P2;Temp;Humidity;BMP_temperature;BMP_pressure;BME280_temperature;BME280_humidity;BME280_pressure;Samples;Min_cycle;Max_cycle;Signal;HPM_P1;HPM_P2
2022/12/21 00:01:11;;;;;;;20.13;7.80;;;;;;;-0.88;100.00;100292.81;5021956;28;20041;-60
2022/12/21 00:03:37;;;;;;;11.27;4.53;;;;;;;-0.86;100.00;100295.28;5017672;28;20372;-58
2022/12/21 00:06:04;;;;;;;10.02;3.85;;;;;;;-0.85;100.00;100286.53;5019893;28;20034;-56
2022/12/21 00:08:34;;;;;;;14.20;4.63;;;;;;;-0.81;100.00;100282.72;5019344;28;20140;-61
2022/12/21 00:10:59;;;;;;;15.18;4.60;;;;;;;-0.79;100.00;100280.00;5024721;28;20426;-60
2022/12/21 00:13:25;;;;;;;9.43;4.50;;;;;;;-0.77;100.00;100270.31;5024610;28;20056;-58
2022/12/21 00:16:06;;;;;;;20.27;4.75;;;;;;;-0.74;100.00;100263.06;5027499;28;20064;-56
2022/12/21 00:18:33;;;;;;;7.10;3.58;;;;;;;-0.77;100.00;100265.09;5019140;28;20475;-59
2022/12/21 00:21:04;;;;;;;11.30;4.35;;;;;;;-0.76;100.00;100259.75;5015361;28;20065;-56
2022/12/21 00:23:30;;;;;;;5.57;2.85;;;;;;;-0.72;100.00;100265.56;5017430;28;20037;-60
2022/12/21 00:25:58;;;;;;;9.93;3.75;;;;;;;-0.69;100.00;100252.28;5021775;28;20026;-58
2022/12/21 00:28:24;;;;;;;10.48;4.47;;;;;;;-0.69;100.00;100245.31;5018699;28;20037;-60
2022/12/21 00:30:49;;;;;;;6.28;3.75;;;;;;;-0.65;100.00;100240.66;5016025;28;20037;-58
2022/12/21 00:33:15;;;;;;;13.52;5.25;;;;;;;-0.62;100.00;100232.63;5021443;28;20041;-57
2022/12/21 00:35:40;;;;;;;7.57;3.88;;;;;;;-0.60;100.00;100228.09;5021121;28;20041;-60
2022/12/21 00:38:05;;;;;;;13.52;4.55;;;;;;;-0.56;100.00;100221.69;5021745;28;20025;-60
2022/12/21 00:40:31;;;;;;;15.25;4.65;;;;;;;-0.57;100.00;100221.81;5019438;28;20493;-58
2022/12/21 00:42:56;;;;;;;14.02;3.95;;;;;;;-0.57;100.00;100225.22;5017120;28;20021;-60
2022/12/21 00:45:21;;;;;;;8.38;3.10;;;;;;;-0.55;100.00;100218.13;5021308;28;20033;-58
2022/12/21 00:47:47;;;;;;;21.33;4.32;;;;;;;-0.51;100.00;100210.91;5017619;28;20038;-60
2022/12/21 00:50:13;;;;;;;8.88;3.08;;;;;;;-0.48;100.00;100216.66;5022452;28;20478;-59
2022/12/21 00:52:38;;;;;;;12.18;3.70;;;;;;;-0.55;100.00;100210.31;5019722;28;20045;-57
2022/12/21 00:55:03;;;;;;;10.40;3.45;;;;;;;-0.57;100.00;100208.78;5021368;28;20048;-60
2022/12/21 00:57:29;;;;;;;6.45;3.38;;;;;;;-0.53;100.00;100218.00;5024966;28;20033;-59
2022/12/21 00:59:54;;;;;;;11.35;3.88;;;;;;;-0.50;100.00;100212.53;5019344;28;20038;-59
2022/12/21 01:02:20;;;;;;;13.32;3.22;;;;;;;-0.51;100.00;100216.09;5018405;28;20067;-60
2022/12/21 01:04:45;;;;;;;10.57;2.90;;;;;;;-0.60;100.00;100211.66;5023722;28;20025;-59
2022/12/21 01:07:10;;;;;;;18.17;4.45;;;;;;;-0.66;100.00;100213.78;5019141;28;20026;-58
2022/12/21 01:09:36;;;;;;;10.48;3.10;;;;;;;-0.68;100.00;100207.88;5018859;28;20117;-53
2022/12/21 01:12:01;;;;;;;10.77;2.58;;;;;;;-0.69;100.00;100210.63;5013245;28;20061;-60
2022/12/21 01:14:27;;;;;;;13.63;3.30;;;;;;;-0.76;100.00;100206.88;5019722;28;20603;-59
2022/12/21 01:16:52;;;;;;;12.13;3.65;;;;;;;-0.77;100.00;100206.03;5020651;28;20425;-58
2022/12/21 01:19:17;;;;;;;6.53;3.30;;;;;;;-0.83;100.00;100206.53;5028014;28;20526;-60
2022/12/21 01:21:42;;;;;;;13.98;5.38;;;;;;;-0.86;100.00;100214.59;5020313;28;20029;-56
2022/12/21 01:24:11;;;;;;;12.77;3.60;;;;;;;-0.88;100.00;100206.06;5031261;28;20575;-56
2022/12/21 01:26:36;;;;;;;11.27;3.05;;;;;;;-0.92;100.00;100205.50;5020060;28;20033;-58
2022/12/21 01:29:02;;;;;;;10.40;2.40;;;;;;;-0.81;100.00;100203.81;5020351;28;20068;-56
2022/12/21 01:31:27;;;;;;;6.22;2.75;;;;;;;-0.78;100.00;100201.78;5020980;28;20033;-60
2022/12/21 01:33:53;;;;;;;14.50;3.63;;;;;;;-0.77;100.00;100200.84;5022614;28;20103;-55
2022/12/21 01:36:19;;;;;;;12.52;3.00;;;;;;;-0.81;100.00;100196.00;5017946;28;20052;-58
2022/12/21 01:38:45;;;;;;;13.27;3.58;;;;;;;-0.83;100.00;100196.09;5020381;28;20501;-59
2022/12/21 01:41:19;;;;;;;14.85;3.92;;;;;;;-0.82;100.00;100187.38;5025516;28;20099;-59
2022/12/21 01:44:04;;;;;;;11.25;3.33;;;;;;;-0.86;100.00;100188.56;5018639;28;20041;-59
2022/12/21 01:46:48;;;;;;;16.60;3.35;;;;;;;-0.93;100.00;100190.00;5026892;28;20392;-60
2022/12/21 01:49:27;;;;;;;18.15;4.50;;;;;;;-1.01;100.00;100195.00;5024696;28;20040;-60
2022/12/21 01:52:09;;;;;;;20.48;4.05;;;;;;;-1.06;100.00;100195.34;5026943;28;20079;-61
2022/12/21 01:54:47;;;;;;;22.10;3.63;;;;;;;-1.03;100.00;100194.28;5029050;28;20120;-61
2022/12/21 01:57:14;;;;;;;6.13;2.95;;;;;;;-1.06;100.00;100191.94;5029425;28;20124;-61
2022/12/21 01:59:43;;;;;;;18.88;4.65;;;;;;;-0.99;100.00;100195.72;5020963;28;20820;-59
2022/12/21 02:02:17;;;;;;;16.27;4.88;;;;;;;-0.98;100.00;100192.13;5028225;28;20438;-59
2022/12/21 02:04:43;;;;;;;14.40;3.53;;;;;;;-1.02;100.00;100201.97;5028967;28;20588;-59
2022/12/21 02:07:08;;;;;;;6.50;2.92;;;;;;;-1.02;100.00;100195.97;5023845;28;20125;-60
2022/12/21 02:09:35;;;;;;;13.20;4.13;;;;;;;-0.99;100.00;100196.53;5018371;28;20484;-61
2022/12/21 02:12:04;;;;;;;12.55;3.45;;;;;;;-0.97;100.00;100194.63;5027410;28;20033;-60
2022/12/21 02:14:33;;;;;;;13.43;3.42;;;;;;;-0.97;100.00;100196.41;5029207;28;20478;-58
2022/12/21 02:17:13;;;;;;;9.38;3.38;;;;;;;-0.96;100.00;100198.06;5028143;28;20025;-61
2022/12/21 02:19:59;;;;;;;12.20;2.73;;;;;;;-0.94;100.00;100201.38;5032383;28;20040;-59
2022/12/21 02:22:30;;;;;;;9.32;3.05;;;;;;;-0.91;100.00;100198.50;5022341;28;20061;-60
2022/12/21 02:25:07;;;;;;;11.52;4.45;;;;;;;-1.00;100.00;100202.69;5028900;28;20064;-61
2022/12/21 02:28:05;;;;;;;7.00;2.25;;;;;;;-0.97;100.00;100202.44;5031807;28;20495;-61
2022/12/21 02:30:50;;;;;;;17.85;2.83;;;;;;;-0.92;100.00;100212.50;5027351;28;20033;-61
2022/12/21 02:33:48;;;;;;;6.13;2.60;;;;;;;-0.89;100.00;100205.25;5030329;28;20531;-59
2022/12/21 02:36:26;;;;;;;4.13;2.22;;;;;;;-0.82;100.00;100192.56;5032683;28;20041;-61
2022/12/21 02:39:11;;;;;;;4.97;2.08;;;;;;;-0.82;100.00;100187.38;5029747;28;20038;-60
2022/12/21 02:41:39;;;;;;;9.88;2.83;;;;;;;-0.87;100.00;100189.50;5037160;28;20540;-61
2022/12/21 02:44:41;;;;;;;9.38;2.85;;;;;;;-0.88;100.00;100183.50;5027003;28;20028;-61
2022/12/21 02:47:09;;;;;;;13.25;2.83;;;;;;;-0.90;100.00;100179.34;5029463;28;20042;-60
2022/12/21 02:50:00;;;;;;;8.68;2.60;;;;;;;-0.92;100.00;100182.06;5036359;28;20730;-61
2022/12/21 02:52:46;;;;;;;11.55;3.55;;;;;;;-0.94;100.00;100183.16;5028858;28;20099;-63
2022/12/21 02:55:13;;;;;;;10.70;2.13;;;;;;;-0.99;100.00;100169.69;5033145;28;20358;-60
2022/12/21 02:57:42;;;;;;;9.15;2.88;;;;;;;-1.00;100.00;100175.84;5037017;28;20059;-61
2022/12/21 03:00:11;;;;;;;8.88;2.85;;;;;;;-0.98;100.00;100164.38;5030599;28;20033;-61
2022/12/21 03:02:48;;;;;;;6.43;1.80;;;;;;;-0.97;100.00;100158.19;5031535;28;20033;-63
2022/12/21 03:05:39;;;;;;;11.65;1.48;;;;;;;-0.92;100.00;100153.44;5036478;28;20479;-59
2022/12/21 03:08:27;;;;;;;13.27;3.03;;;;;;;-0.82;100.00;100152.69;5029893;28;20073;-62
2022/12/21 03:11:02;;;;;;;10.95;2.08;;;;;;;-0.73;100.00;100154.53;5036432;28;20403;-62
2022/12/21 03:13:56;;;;;;;5.82;2.05;;;;;;;-0.77;100.00;100146.16;5016307;28;20032;-62
2022/12/21 03:16:42;;;;;;;10.23;2.25;;;;;;;-0.79;100.00;100147.25;5030077;28;20018;-62
2022/12/21 03:19:08;;;;;;;5.15;1.42;;;;;;;-0.85;100.00;100145.13;5024478;28;20033;-61
2022/12/21 03:21:39;;;;;;;5.50;1.83;;;;;;;-0.87;100.00;100145.25;5030561;28;20037;-62
2022/12/21 03:24:22;;;;;;;5.25;1.40;;;;;;;-0.80;100.00;100142.97;5029583;28;20112;-61
2022/12/21 03:26:56;;;;;;;8.65;2.60;;;;;;;-0.74;100.00;100143.31;5017720;28;20038;-61
2022/12/21 03:29:30;;;;;;;10.35;2.83;;;;;;;-0.73;100.00;100144.94;5021711;28;20120;-61
2022/12/21 03:32:03;;;;;;;15.00;2.72;;;;;;;-0.68;100.00;100142.78;5043218;28;20029;-59
2022/12/21 03:34:36;;;;;;;10.15;1.75;;;;;;;-0.66;100.00;100135.69;5030800;28;20033;-63
2022/12/21 03:37:16;;;;;;;10.80;3.63;;;;;;;-0.62;100.00;100138.88;5026236;28;20021;-62
2022/12/21 03:39:47;;;;;;;20.42;3.92;;;;;;;-0.56;100.00;100137.53;5022157;28;20120;-62
2022/12/21 03:42:24;;;;;;;3.00;1.65;;;;;;;-0.42;100.00;100129.38;5028936;28;20040;-59
2022/12/21 03:44:59;;;;;;;11.30;1.45;;;;;;;-0.37;100.00;100129.00;5016784;28;20029;-61
2022/12/21 03:47:32;;;;;;;10.48;2.08;;;;;;;-0.04;100.00;100123.53;5026363;28;20051;-61
2022/12/21 03:50:02;;;;;;;5.40;1.08;;;;;;;0.56;100.00;100117.50;5028096;28;20032;-60
2022/12/21 03:52:44;;;;;;;14.20;1.45;;;;;;;1.51;100.00;100129.84;5025865;28;20042;-59
2022/12/21 03:55:18;;;;;;;4.55;1.50;;;;;;;2.13;100.00;100140.66;5036707;28;20033;-53
2022/12/21 03:57:44;;;;;;;14.98;1.48;;;;;;;2.54;100.00;100144.56;5026529;28;20120;-53
2022/12/21 04:00:11;;;;;;;8.02;1.05;;;;;;;2.75;100.00;100153.94;5019212;28;20061;-59
2022/12/21 04:03:10;;;;;;;6.13;1.63;;;;;;;2.96;100.00;100153.66;5025057;28;20129;-57
2022/12/21 04:05:44;;;;;;;10.25;2.22;;;;;;;2.93;100.00;100161.81;5027934;28;20492;-56
2022/12/21 04:08:09;;;;;;;9.00;0.98;;;;;;;2.96;100.00;100164.94;5026839;28;20041;-59
2022/12/21 04:10:35;;;;;;;9.27;0.98;;;;;;;3.05;100.00;100163.25;5018710;28;20052;-55
2022/12/21 04:13:00;;;;;;;7.97;0.88;;;;;;;3.11;100.00;100151.31;5027338;28;20026;-56
2022/12/21 04:16:03;;;;;;;5.43;1.25;;;;;;;3.12;100.00;100153.78;5026631;28;20041;-58
2022/12/21 04:18:13;;;;;;;10.90;1.25;;;;;;;3.08;100.00;100141.97;5030938;28;20051;-56
2022/12/21 04:20:38;;;;;;;6.50;1.63;;;;;;;3.09;100.00;100133.13;5031793;28;20128;-54
2022/12/21 04:28:32;;;;;;;10.88;2.60;;;;;;;3.00;100.00;100127.00;5031606;28;20060;-55
2022/12/21 04:30:59;;;;;;;1.98;0.80;;;;;;;3.04;100.00;100132.75;5026022;28;20026;-59
2022/12/21 04:33:27;;;;;;;7.53;1.80;;;;;;;3.11;100.00;100127.75;5033590;28;20026;-58
2022/12/21 04:38:39;;;;;;;8.75;1.63;;;;;;;3.08;100.00;100110.53;5028912;28;20044;-56
2022/12/21 04:41:06;;;;;;;3.17;0.52;;;;;;;3.06;100.00;100115.09;5022657;28;20033;-57
2022/12/21 04:43:34;;;;;;;9.40;0.88;;;;;;;3.16;100.00;100113.22;5026218;28;20371;-55
2022/12/21 04:46:02;;;;;;;7.60;1.92;;;;;;;3.22;100.00;100112.59;5022628;28;20038;-52
2022/12/21 04:48:28;;;;;;;5.30;1.05;;;;;;;3.21;100.00;100115.38;5024984;28;20046;-54
2022/12/21 04:50:53;;;;;;;4.43;1.27;;;;;;;3.25;100.00;100106.22;5028441;28;20439;-54
2022/12/21 04:53:18;;;;;;;5.45;0.57;;;;;;;3.17;100.00;100107.00;5033529;28;20589;-57
2022/12/21 04:55:45;;;;;;;2.10;0.55;;;;;;;3.06;100.00;100096.75;5026216;28;20029;-58
2022/12/21 04:58:11;;;;;;;3.78;0.30;;;;;;;2.89;100.00;100097.59;5020333;28;20021;-53
2022/12/21 05:00:36;;;;;;;8.07;0.85;;;;;;;2.91;100.00;100098.28;5027814;28;20032;-56
2022/12/21 05:03:01;;;;;;;8.30;1.27;;;;;;;2.94;100.00;100104.03;5031167;28;20025;-55
2022/12/21 05:05:28;;;;;;;3.50;0.60;;;;;;;2.93;100.00;100101.56;5034052;28;20517;-57
2022/12/21 05:07:53;;;;;;;5.97;1.25;;;;;;;2.84;100.00;100101.50;5027590;28;20025;-59
2022/12/21 05:10:19;;;;;;;3.17;0.52;;;;;;;2.76;100.00;100101.44;5026111;28;20037;-57
2022/12/21 05:12:44;;;;;;;16.17;2.00;;;;;;;2.73;100.00;100096.47;5029865;28;20116;-54
2022/12/21 05:15:10;;;;;;;0.43;0.08;;;;;;;2.68;100.00;100093.47;5027727;28;20108;-55
2022/12/21 05:17:35;;;;;;;9.07;1.77;;;;;;;2.42;100.00;100089.97;5032222;28;20129;-57
2022/12/21 05:20:00;;;;;;;3.70;1.25;;;;;;;2.28;100.00;100089.50;5030409;28;20455;-58
2022/12/21 05:22:26;;;;;;;1.20;0.82;;;;;;;2.17;100.00;100094.94;5040272;28;20069;-56
2022/12/21 05:24:51;;;;;;;1.52;1.00;;;;;;;2.07;100.00;100083.69;5023819;28;20036;-58
2022/12/21 05:27:17;;;;;;;0.90;0.17;;;;;;;1.91;100.00;100079.91;5028605;28;20065;-57
2022/12/21 05:29:42;;;;;;;3.25;0.32;;;;;;;1.90;100.00;100088.72;5024954;28;20036;-57
2022/12/21 05:32:07;;;;;;;4.65;0.20;;;;;;;1.86;100.00;100078.69;5022003;28;20468;-58
2022/12/21 05:34:33;;;;;;;3.30;0.47;;;;;;;1.84;100.00;100072.78;5028215;28;20136;-57
2022/12/21 05:36:58;;;;;;;1.13;0.47;;;;;;;1.78;100.00;100068.94;5030161;28;20025;-59
2022/12/21 05:39:23;;;;;;;3.03;0.38;;;;;;;1.64;100.00;100061.59;5031985;28;20029;-57
2022/12/21 05:41:49;;;;;;;4.72;0.17;;;;;;;1.50;100.00;100060.28;5025071;28;20096;-58
2022/12/21 05:44:14;;;;;;;0.63;0.28;;;;;;;1.53;100.00;100054.75;5027025;28;20112;-58
2022/12/21 05:46:39;;;;;;;2.22;0.35;;;;;;;1.53;100.00;100050.34;5022493;28;20033;-57
2022/12/21 05:49:05;;;;;;;1.75;0.47;;;;;;;1.46;100.00;100054.50;5029277;28;20025;-57
2022/12/21 05:51:30;;;;;;;2.53;0.15;;;;;;;1.40;100.00;100054.25;5029582;28;20057;-56
2022/12/21 05:53:55;;;;;;;0.30;0.22;;;;;;;1.39;100.00;100049.97;5021924;28;20037;-55
2022/12/21 05:56:21;;;;;;;3.72;0.40;;;;;;;1.35;100.00;100054.66;5031540;28;20033;-54
2022/12/21 05:58:46;;;;;;;1.17;0.52;;;;;;;1.40;100.00;100059.47;5031971;28;20386;-57
2022/12/21 06:01:12;;;;;;;3.20;0.30;;;;;;;1.43;100.00;100049.56;5030598;28;20471;-57
2022/12/21 06:03:38;;;;;;;0.65;0.17;;;;;;;1.50;100.00;100044.59;5027881;28;20515;-57
2022/12/21 06:06:07;;;;;;;1.98;0.52;;;;;;;1.53;100.00;100050.34;5032478;28;20024;-55
2022/12/21 06:08:32;;;;;;;5.60;0.20;;;;;;;1.55;100.00;100054.59;5031732;28;20030;-56
2022/12/21 06:11:07;;;;;;;1.50;0.45;;;;;;;1.57;100.00;100052.66;5019233;28;20029;-56
2022/12/21 06:13:32;;;;;;;4.47;0.55;;;;;;;1.64;100.00;100053.75;5038853;28;20083;-55
2022/12/21 06:16:07;;;;;;;3.10;0.13;;;;;;;1.75;100.00;100059.59;5016609;28;20037;-55
2022/12/21 06:18:32;;;;;;;0.28;0.28;;;;;;;1.86;100.00;100060.38;5023278;28;20262;-58
2022/12/21 06:20:58;;;;;;;2.28;0.10;;;;;;;1.93;100.00;100067.50;5023901;28;20030;-56
2022/12/21 06:23:24;;;;;;;0.40;0.20;;;;;;;1.97;100.00;100052.34;5035245;28;20053;-56
2022/12/21 06:25:54;;;;;;;3.13;0.43;;;;;;;2.04;100.00;100063.03;5023833;28;20489;-54
2022/12/21 06:28:19;;;;;;;1.05;0.30;;;;;;;2.02;100.00;100054.53;5030409;28;20029;-57
2022/12/21 06:30:44;;;;;;;1.75;0.20;;;;;;;2.07;100.00;100057.53;5035799;28;20030;-58
2022/12/21 06:33:10;;;;;;;4.03;0.35;;;;;;;2.02;100.00;100065.00;5032317;28;20047;-59
2022/12/21 06:35:35;;;;;;;1.52;0.22;;;;;;;2.06;100.00;100058.50;5029560;28;20028;-56
2022/12/21 06:38:01;;;;;;;1.88;0.60;;;;;;;2.13;100.00;100059.56;5030648;28;20140;-57
2022/12/21 06:40:26;;;;;;;1.20;0.08;;;;;;;2.10;100.00;100057.25;5032459;28;20471;-58
2022/12/21 06:42:51;;;;;;;0.95;0.10;;;;;;;2.08;100.00;100061.78;5028729;28;20059;-57
2022/12/21 06:45:16;;;;;;;1.08;0.10;;;;;;;2.12;100.00;100055.31;5021599;28;20022;-54
2022/12/21 06:47:42;;;;;;;7.10;0.30;;;;;;;2.21;100.00;100049.19;5033077;28;20097;-54
2022/12/21 06:50:08;;;;;;;5.25;0.80;;;;;;;2.28;100.00;100057.28;5025276;28;20037;-54
2022/12/21 06:52:33;;;;;;;2.08;0.20;;;;;;;2.31;100.00;100055.19;5029211;28;20067;-58
2022/12/21 06:54:58;;;;;;;0.50;0.00;;;;;;;2.38;100.00;100048.38;5022676;28;20475;-57
2022/12/21 06:57:24;;;;;;;2.00;0.30;;;;;;;2.40;100.00;100038.59;5031915;28;20558;-57
2022/12/21 06:59:49;;;;;;;2.28;1.38;;;;;;;2.50;100.00;100042.94;5026794;28;20481;-55
2022/12/21 07:02:14;;;;;;;1.48;0.35;;;;;;;2.64;100.00;100037.19;5013465;28;20041;-56
2022/12/21 07:04:39;;;;;;;6.25;1.35;;;;;;;2.64;100.00;100034.56;5023038;28;20037;-59
2022/12/21 07:07:05;;;;;;;2.47;0.85;;;;;;;2.81;100.00;100036.34;5020905;28;20614;-53
2022/12/21 07:09:30;;;;;;;2.38;0.22;;;;;;;3.00;100.00;100040.56;5027713;28;20026;-56
2022/12/21 07:11:55;;;;;;;4.18;0.85;;;;;;;3.12;100.00;100037.69;5022383;28;20482;-55
2022/12/21 07:14:21;;;;;;;6.22;0.40;;;;;;;3.27;100.00;100042.22;5019284;28;20480;-55
2022/12/21 07:16:46;;;;;;;0.85;0.52;;;;;;;3.37;100.00;100054.41;5020900;28;20148;-54
2022/12/21 07:19:11;;;;;;;1.70;1.60;;;;;;;3.36;100.00;100052.78;5028288;28;20025;-57
2022/12/21 07:21:37;;;;;;;1.35;0.40;;;;;;;3.53;100.00;100054.50;5023047;28;20462;-55
2022/12/21 07:24:02;;;;;;;4.85;1.23;;;;;;;3.60;100.00;100050.28;5023076;28;20026;-55
2022/12/21 07:26:28;;;;;;;0.60;0.25;;;;;;;3.64;100.00;100051.63;5023124;28;20033;-56
2022/12/21 07:28:54;;;;;;;1.35;0.38;;;;;;;3.69;100.00;100051.13;5032345;28;20079;-57
2022/12/21 07:31:25;;;;;;;1.05;0.75;;;;;;;3.67;100.00;100050.47;5027321;28;20029;-58
2022/12/21 07:33:51;;;;;;;2.03;0.90;;;;;;;3.66;100.00;100060.13;5017890;28;20036;-57
2022/12/21 07:36:17;;;;;;;7.88;0.77;;;;;;;3.89;100.00;100054.34;5023455;28;20023;-56
2022/12/21 07:38:42;;;;;;;0.80;0.25;;;;;;;4.09;100.00;100055.72;5034565;28;20036;-54
2022/12/21 07:41:11;;;;;;;3.13;1.42;;;;;;;4.07;100.00;100049.81;5023766;28;20103;-58
2022/12/21 07:43:37;;;;;;;2.85;0.50;;;;;;;3.96;100.00;100065.03;5023162;28;20437;-56
2022/12/21 07:46:03;;;;;;;3.65;0.57;;;;;;;3.97;100.00;100064.84;5021598;28;20122;-56
2022/12/21 07:48:29;;;;;;;1.58;0.28;;;;;;;4.03;100.00;100059.00;5031000;28;20045;-54
2022/12/21 07:50:55;;;;;;;8.10;0.80;;;;;;;4.03;100.00;100052.94;5029774;28;20064;-56
2022/12/21 07:53:20;;;;;;;6.32;0.70;;;;;;;3.91;100.00;100047.94;5026637;28;20491;-54
2022/12/21 07:55:46;;;;;;;1.65;0.30;;;;;;;4.02;100.00;100049.47;5033517;28;20025;-58
2022/12/21 07:58:11;;;;;;;1.48;0.93;;;;;;;4.18;100.00;100053.13;5040292;28;20374;-53
2022/12/21 08:00:40;;;;;;;5.80;1.20;;;;;;;4.33;100.00;100057.56;5033256;28;20033;-56
2022/12/21 08:03:05;;;;;;;4.10;0.95;;;;;;;4.21;100.00;100060.66;5020945;28;20391;-54
2022/12/21 08:05:31;;;;;;;3.42;1.13;;;;;;;4.04;100.00;100047.50;5020387;28;20033;-52
2022/12/21 08:07:57;;;;;;;0.25;0.20;;;;;;;4.08;100.00;100051.47;5026212;28;20482;-55
2022/12/21 08:10:23;;;;;;;1.83;0.52;;;;;;;4.18;100.00;100060.97;5016393;28;20076;-58
2022/12/21 08:12:48;;;;;;;3.03;1.48;;;;;;;4.28;100.00;100066.91;5021733;28;20029;-57
2022/12/21 08:15:14;;;;;;;3.63;1.23;;;;;;;4.34;100.00;100066.28;5024229;28;20029;-58
2022/12/21 08:17:39;;;;;;;4.05;1.42;;;;;;;4.42;100.00;100074.19;5020625;28;20022;-53
2022/12/21 08:20:06;;;;;;;7.88;1.80;;;;;;;4.42;100.00;100066.31;5025315;28;20049;-57
2022/12/21 08:22:31;;;;;;;9.57;0.75;;;;;;;4.41;100.00;100077.78;5030245;28;20037;-58
2022/12/21 08:24:57;;;;;;;3.03;1.50;;;;;;;4.35;100.00;100073.19;5026858;28;20025;-54
2022/12/21 08:27:22;;;;;;;1.40;0.40;;;;;;;4.48;100.00;100072.72;5023250;28;20394;-53
2022/12/21 08:29:47;;;;;;;6.45;0.52;;;;;;;4.53;100.00;100073.06;5020281;28;20479;-53
2022/12/21 08:32:13;;;;;;;1.67;0.35;;;;;;;4.58;100.00;100081.25;5022102;28;20120;-58
2022/12/21 08:34:38;;;;;;;5.90;0.68;;;;;;;4.70;100.00;100092.25;5023793;28;20096;-57
2022/12/21 08:37:03;;;;;;;5.55;0.90;;;;;;;4.64;100.00;100083.22;5023007;28;20033;-57
2022/12/21 08:39:29;;;;;;;3.45;0.98;;;;;;;4.55;100.00;100081.59;5018846;28;20033;-57
2022/12/21 08:41:54;;;;;;;3.65;1.23;;;;;;;4.68;100.00;100087.19;5027139;28;20555;-54
2022/12/21 08:44:19;;;;;;;2.72;0.98;;;;;;;4.77;100.00;100082.75;5027104;28;20083;-54
2022/12/21 08:46:45;;;;;;;2.33;0.93;;;;;;;4.84;100.00;100085.56;5025093;28;20029;-55
2022/12/21 08:49:10;;;;;;;3.00;0.47;;;;;;;4.93;100.00;100089.81;5019682;28;20061;-54
2022/12/21 08:51:37;;;;;;;1.88;0.57;;;;;;;5.01;100.00;100093.28;5019375;28;20037;-55
2022/12/21 08:54:03;;;;;;;6.13;0.63;;;;;;;4.95;100.00;100085.22;5037265;28;20032;-58
2022/12/21 08:56:29;;;;;;;2.60;0.70;;;;;;;4.89;100.00;100086.72;5018547;28;20026;-56
2022/12/21 08:58:54;;;;;;;0.60;0.30;;;;;;;4.91;100.00;100084.75;5021868;28;20036;-54
2022/12/21 09:01:22;;;;;;;8.75;1.23;;;;;;;4.95;100.00;100080.78;5026477;28;20548;-58
2022/12/21 09:03:47;;;;;;;6.57;1.55;;;;;;;5.02;100.00;100084.41;5028189;28;20504;-57
2022/12/21 09:06:13;;;;;;;3.10;0.70;;;;;;;5.13;100.00;100075.38;5027662;28;20025;-52
2022/12/21 09:08:39;;;;;;;1.13;0.50;;;;;;;5.27;100.00;100079.16;5022927;28;20030;-56
2022/12/21 09:11:08;;;;;;;7.32;1.35;;;;;;;5.40;100.00;100074.19;5001071;28;20037;-56
2022/12/21 09:13:33;;;;;;;3.90;1.52;;;;;;;5.57;100.00;100077.59;5013443;28;20052;-55
2022/12/21 09:15:59;;;;;;;6.13;1.25;;;;;;;5.71;100.00;100073.47;5023187;28;20033;-55
2022/12/21 09:18:24;;;;;;;13.02;3.35;;;;;;;5.81;100.00;100073.28;5024917;28;20491;-55
2022/12/21 09:20:50;;;;;;;23.17;5.82;;;;;;;5.88;100.00;100077.66;5020974;28;20545;-55
2022/12/21 09:23:16;;;;;;;13.90;3.40;;;;;;;5.92;100.00;100077.34;5021672;28;20025;-54
2022/12/21 09:25:41;;;;;;;8.60;3.58;;;;;;;5.91;100.00;100073.88;5021534;28;20051;-57
2022/12/21 09:28:07;;;;;;;7.53;1.83;;;;;;;5.92;100.00;100069.47;5019703;28;20086;-57
2022/12/21 09:30:32;;;;;;;5.13;1.60;;;;;;;5.92;100.00;100067.63;5018769;28;20458;-56
2022/12/21 09:32:58;;;;;;;2.83;0.63;;;;;;;6.03;100.00;100069.09;5017084;28;20065;-56
2022/12/21 09:35:23;;;;;;;7.40;1.58;;;;;;;6.00;100.00;100069.44;5017428;28;20032;-57
2022/12/21 09:37:49;;;;;;;8.77;3.75;;;;;;;6.01;100.00;100071.06;5014148;28;20028;-57
2022/12/21 09:40:17;;;;;;;13.05;3.65;;;;;;;6.12;100.00;100065.44;5019335;28;20025;-58
2022/12/21 09:43:06;;;;;;;4.65;1.30;;;;;;;6.14;100.00;100066.06;5025351;28;20083;-57
2022/12/21 09:45:34;;;;;;;4.80;1.42;;;;;;;6.20;100.00;100062.78;5019409;28;20108;-56
2022/12/21 09:48:06;;;;;;;10.13;2.65;;;;;;;6.23;100.00;100061.59;5019914;28;20053;-53
2022/12/21 09:50:51;;;;;;;7.53;0.47;;;;;;;6.32;100.00;100058.75;5019985;28;20045;-57
2022/12/21 09:53:25;;;;;;;10.07;1.98;;;;;;;6.32;100.00;100063.19;5014789;28;20034;-54
2022/12/21 09:55:54;;;;;;;3.65;0.88;;;;;;;6.43;100.00;100060.19;5012781;28;20029;-53
2022/12/21 09:58:31;;;;;;;5.15;1.55;;;;;;;6.54;100.00;100064.22;5017646;28;20034;-57
2022/12/21 10:01:16;;;;;;;3.00;0.30;;;;;;;6.55;100.00;100063.22;5017630;28;20033;-55
2022/12/21 10:03:50;;;;;;;5.50;0.60;;;;;;;6.69;100.00;100064.28;5016915;28;20419;-56
2022/12/21 10:06:54;;;;;;;5.22;1.63;;;;;;;6.72;100.00;100070.00;5016069;28;20390;-54
2022/12/21 10:09:44;;;;;;;4.65;0.40;;;;;;;6.79;100.00;100067.50;5004983;28;20478;-56
2022/12/21 10:12:18;;;;;;;1.77;1.55;;;;;;;6.86;100.00;100070.25;5013144;28;20701;-59
2022/12/21 10:15:35;;;;;;;11.70;3.75;;;;;;;6.76;100.00;100066.03;5009412;28;20040;-56
2022/12/21 10:18:21;;;;;;;2.55;0.32;;;;;;;6.81;100.00;100056.78;5018669;28;20422;-56
2022/12/21 10:20:56;;;;;;;5.43;0.88;;;;;;;6.77;100.00;100067.66;5014018;28;20498;-58
2022/12/21 10:23:45;;;;;;;6.30;0.60;;;;;;;6.92;100.00;100064.28;5014996;28;20040;-59
2022/12/21 10:26:15;;;;;;;2.88;0.73;;;;;;;7.12;100.00;100065.41;5011676;28;20033;-58
2022/12/21 10:29:02;;;;;;;10.60;2.10;;;;;;;7.27;100.00;100069.91;5012492;28;20632;-58
2022/12/21 10:31:34;;;;;;;2.22;1.20;;;;;;;7.40;100.00;100072.72;5012713;28;20184;-57
2022/12/21 10:34:01;;;;;;;11.38;0.60;;;;;;;7.47;100.00;100068.38;5010358;28;20080;-54
2022/12/21 10:36:36;;;;;;;21.25;1.55;;;;;;;7.65;100.00;100068.84;5012387;28;20060;-57
2022/12/21 10:39:03;;;;;;;3.83;1.27;;;;;;;7.70;100.00;100056.94;5010160;28;20033;-58
2022/12/21 10:41:39;;;;;;;4.22;1.08;;;;;;;7.80;100.00;100053.00;5010187;28;20040;-57
2022/12/21 10:44:05;;;;;;;5.72;0.68;;;;;;;7.95;100.00;100047.72;5011174;28;20045;-54
2022/12/21 10:46:33;;;;;;;6.68;1.10;;;;;;;8.01;100.00;100049.63;5012742;28;20656;-57
2022/12/21 10:49:23;;;;;;;5.63;1.20;;;;;;;8.05;100.00;100052.69;5012561;28;20394;-56
2022/12/21 10:51:48;;;;;;;5.57;1.92;;;;;;;8.09;100.00;100040.75;5016714;28;20030;-60
2022/12/21 10:54:24;;;;;;;1.88;1.00;;;;;;;8.23;100.00;100042.53;5018977;28;20044;-58
2022/12/21 10:56:51;;;;;;;5.07;1.38;;;;;;;8.28;100.00;100034.06;5016425;28;20152;-56
2022/12/21 10:59:25;;;;;;;3.40;0.52;;;;;;;8.31;100.00;100025.75;5019462;28;20025;-57
2022/12/21 11:01:51;;;;;;;4.60;1.13;;;;;;;8.28;100.00;100013.75;5017739;28;20037;-59
2022/12/21 11:04:22;;;;;;;7.07;2.35;;;;;;;8.27;100.00;100011.31;5019908;28;20654;-58
2022/12/21 11:06:55;;;;;;;;;;;;;;;8.29;100.00;100004.84;5019177;28;20100;-57
2022/12/21 11:09:37;;;;;;;5.70;0.73;;;;;;;8.40;100.00;100000.91;5020648;28;19991;-57
2022/12/21 11:12:20;;;;;;;5.13;1.75;;;;;;;8.34;100.00;99992.88;5019181;28;20920;-57
2022/12/21 11:14:46;;;;;;;3.42;1.55;;;;;;;8.14;100.00;99980.28;5015026;28;20135;-58
2022/12/21 11:17:16;;;;;;;13.00;2.92;;;;;;;8.11;100.00;99980.66;5018202;28;20025;-58
2022/12/21 11:19:41;;;;;;;4.65;0.63;;;;;;;8.05;100.00;99974.31;5019406;28;20116;-57
2022/12/21 11:22:07;;;;;;;3.33;0.20;;;;;;;8.15;100.00;99978.47;5020638;28;20091;-60
2022/12/21 11:24:41;;;;;;;3.50;0.50;;;;;;;8.39;100.00;99967.56;5020680;28;20117;-58
2022/12/21 11:27:19;;;;;;;15.90;2.25;;;;;;;8.62;100.00;99966.53;5018153;28;20490;-59
2022/12/21 11:29:48;;;;;;;5.95;0.20;;;;;;;8.70;100.00;99958.50;5019305;28;20038;-58
2022/12/21 11:32:15;;;;;;;9.63;2.25;;;;;;;8.73;100.00;99950.16;5017296;28;20824;-58
2022/12/21 11:34:47;;;;;;;5.72;0.40;;;;;;;8.72;100.00;99946.72;5012561;28;20072;-59
2022/12/21 11:37:38;;;;;;;9.23;1.20;;;;;;;8.79;100.00;99944.09;5018076;28;20037;-59
2022/12/21 11:40:22;;;;;;;2.90;0.23;;;;;;;9.01;100.00;99944.03;5014980;28;20029;-54
2022/12/21 11:43:00;;;;;;;5.47;2.50;;;;;;;9.11;100.00;99934.78;5013343;28;21199;-58